sensor_id;sensor_type;location;lat;lon;timestamp;pressure;altitude;pressure_sealevel;temperature;humidity
41688;BME280;27371;42.686;23.362;2023-03-03T00:01:22;163012.66;;;3.12;90.53
41688;BME280;27371;42.686;23.362;2023-03-03T00:03:51;163028.59;;;3.19;90.83
41688;BME280;27371;42.686;23.362;2023-03-03T00:06:17;163009.97;;;3.11;90.83
41688;BME280;27371;42.686;23.362;2023-03-03T00:08:44;163014.00;;;3.13;91.39
41688;BME280;27371;42.686;23.362;2023-03-03T00:11:10;163041.91;;;3.24;91.90
41688;BME280;27371;42.686;23.362;2023-03-03T00:13:43;163041.91;;;3.24;91.95
41688;BME280;27371;42.686;23.362;2023-03-03T00:16:13;163020.63;;;3.16;91.72
41688;BME280;27371;42.686;23.362;2023-03-03T00:18:42;163057.88;;;3.30;91.33
41688;BME280;27371;42.686;23.362;2023-03-03T00:21:24;163097.78;;;3.45;91.60
41688;BME280;27371;42.686;23.362;2023-03-03T00:23:51;163084.50;;;3.40;90.98
41688;BME280;27371;42.686;23.362;2023-03-03T00:26:37;163092.47;;;3.43;90.70
41688;BME280;27371;42.686;23.362;2023-03-03T00:29:35;163101.75;;;3.47;90.69
41688;BME280;27371;42.686;23.362;2023-03-03T00:32:24;163111.09;;;3.50;90.38
41688;BME280;27371;42.686;23.362;2023-03-03T00:34:52;163096.47;;;3.45;90.79
41688;BME280;27371;42.686;23.362;2023-03-03T00:39:52;163123.03;;;3.55;90.61
41688;BME280;27371;42.686;23.362;2023-03-03T00:42:19;163083.16;;;3.40;90.35
41688;BME280;27371;42.686;23.362;2023-03-03T00:44:54;163121.72;;;3.54;90.25
41688;BME280;27371;42.686;23.362;2023-03-03T00:53:14;163055.22;;;3.29;89.22
41688;BME280;27371;42.686;23.362;2023-03-03T00:55:45;163008.66;;;3.11;89.56
41688;BME280;27371;42.686;23.362;2023-03-03T00:58:12;163018.00;;;3.15;90.51
41688;BME280;27371;42.686;23.362;2023-03-03T01:03:54;163014.00;;;3.13;91.68
41688;BME280;27371;42.686;23.362;2023-03-03T01:06:19;163029.94;;;3.19;91.75
41688;BME280;27371;42.686;23.362;2023-03-03T01:08:45;163027.28;;;3.18;92.02
41688;BME280;27371;42.686;23.362;2023-03-03T01:11:13;163061.88;;;3.31;92.22
41688;BME280;27371;42.686;23.362;2023-03-03T01:13:42;163093.78;;;3.44;91.88
41688;BME280;27371;42.686;23.362;2023-03-03T01:16:08;163091.13;;;3.43;91.20
41688;BME280;27371;42.686;23.362;2023-03-03T01:18:34;163081.84;;;3.39;91.60
41688;BME280;27371;42.686;23.362;2023-03-03T01:21:00;163064.53;;;3.32;91.63
41688;BME280;27371;42.686;23.362;2023-03-03T01:23:26;163095.09;;;3.44;91.66
41688;BME280;27371;42.686;23.362;2023-03-03T01:25:52;163116.38;;;3.52;91.03
41688;BME280;27371;42.686;23.362;2023-03-03T01:28:18;163100.44;;;3.46;91.12
41688;BME280;27371;42.686;23.362;2023-03-03T01:30:43;163108.41;;;3.49;91.45
41688;BME280;27371;42.686;23.362;2023-03-03T01:33:09;163103.09;;;3.47;90.97
41688;BME280;27371;42.686;23.362;2023-03-03T01:35:35;163117.75;;;3.53;90.91
41688;BME280;27371;42.686;23.362;2023-03-03T01:38:01;163089.81;;;3.42;90.62
41688;BME280;27371;42.686;23.362;2023-03-03T01:40:29;163097.78;;;3.45;90.98
41688;BME280;27371;42.686;23.362;2023-03-03T01:42:55;163108.41;;;3.49;91.01
41688;BME280;27371;42.686;23.362;2023-03-03T01:45:27;163111.09;;;3.50;90.82
41688;BME280;27371;42.686;23.362;2023-03-03T01:50:59;163043.25;;;3.24;89.60
41688;BME280;27371;42.686;23.362;2023-03-03T01:53:29;163015.31;;;3.13;90.06
41688;BME280;27371;42.686;23.362;2023-03-03T01:55:55;163007.34;;;3.10;90.56
41688;BME280;27371;42.686;23.362;2023-03-03T01:58:34;162987.38;;;3.03;90.81
41688;BME280;27371;42.686;23.362;2023-03-03T02:01:06;162970.09;;;2.96;91.13
41688;BME280;27371;42.686;23.362;2023-03-03T02:03:33;162963.44;;;2.94;91.52
41688;BME280;27371;42.686;23.362;2023-03-03T02:06:07;162962.13;;;2.93;91.79
41688;BME280;27371;42.686;23.362;2023-03-03T02:08:50;162978.06;;;2.99;92.24
41688;BME280;27371;42.686;23.362;2023-03-03T02:11:18;162983.41;;;3.01;92.40
41688;BME280;27371;42.686;23.362;2023-03-03T02:13:45;163004.69;;;3.09;92.18
41688;BME280;27371;42.686;23.362;2023-03-03T02:16:10;163008.66;;;3.11;91.92
41688;BME280;27371;42.686;23.362;2023-03-03T02:18:36;163015.31;;;3.13;91.29
41688;BME280;27371;42.686;23.362;2023-03-03T02:23:38;163045.94;;;3.25;90.82
41688;BME280;27371;42.686;23.362;2023-03-03T02:26:13;163048.56;;;3.26;90.45
41688;BME280;27371;42.686;23.362;2023-03-03T02:28:40;163047.25;;;3.26;90.49
41688;BME280;27371;42.686;23.362;2023-03-03T02:31:09;163061.88;;;3.31;90.39
41688;BME280;27371;42.686;23.362;2023-03-03T02:33:38;163057.88;;;3.30;90.32
41688;BME280;27371;42.686;23.362;2023-03-03T02:36:03;163085.81;;;3.41;90.22
41688;BME280;27371;42.686;23.362;2023-03-03T02:41:20;163113.75;;;3.51;89.98
41688;BME280;27371;42.686;23.362;2023-03-03T02:44:08;163104.44;;;3.48;89.45
41688;BME280;27371;42.686;23.362;2023-03-03T02:46:40;163065.84;;;3.33;87.97
41688;BME280;27371;42.686;23.362;2023-03-03T02:49:07;162972.75;;;2.97;87.46
41688;BME280;27371;42.686;23.362;2023-03-03T02:51:33;162958.13;;;2.92;88.75
41688;BME280;27371;42.686;23.362;2023-03-03T02:54:00;162947.50;;;2.87;89.58
41688;BME280;27371;42.686;23.362;2023-03-03T02:56:26;162963.44;;;2.94;90.08
41688;BME280;27371;42.686;23.362;2023-03-03T02:58:51;162982.09;;;3.01;90.70
41688;BME280;27371;42.686;23.362;2023-03-03T03:01:18;162984.72;;;3.02;90.83
41688;BME280;27371;42.686;23.362;2023-03-03T03:03:43;162963.44;;;2.94;90.90
41688;BME280;27371;42.686;23.362;2023-03-03T03:06:09;162958.13;;;2.92;91.67
41688;BME280;27371;42.686;23.362;2023-03-03T03:08:35;162939.53;;;2.84;92.08
41688;BME280;27371;42.686;23.362;2023-03-03T03:11:01;162984.72;;;3.02;92.28
41688;BME280;27371;42.686;23.362;2023-03-03T03:13:27;162988.75;;;3.03;91.94
41688;BME280;27371;42.686;23.362;2023-03-03T03:15:52;162990.06;;;3.04;92.32
41688;BME280;27371;42.686;23.362;2023-03-03T03:18:18;163007.34;;;3.10;92.11
41688;BME280;27371;42.686;23.362;2023-03-03T03:20:44;163015.31;;;3.13;92.13
41688;BME280;27371;42.686;23.362;2023-03-03T03:23:09;163012.66;;;3.12;91.88
41688;BME280;27371;42.686;23.362;2023-03-03T03:25:35;162990.06;;;3.04;91.76
41688;BME280;27371;42.686;23.362;2023-03-03T03:28:10;162991.38;;;3.04;92.18
41688;BME280;27371;42.686;23.362;2023-03-03T03:30:37;162984.72;;;3.02;92.33
41688;BME280;27371;42.686;23.362;2023-03-03T03:33:05;162998.03;;;3.07;92.51
41688;BME280;27371;42.686;23.362;2023-03-03T03:35:32;163004.69;;;3.09;92.90
41688;BME280;27371;42.686;23.362;2023-03-03T03:37:58;163014.00;;;3.13;92.79
41688;BME280;27371;42.686;23.362;2023-03-03T03:40:24;163011.34;;;3.12;92.67
41688;BME280;27371;42.686;23.362;2023-03-03T03:42:51;163006.00;;;3.10;92.00
41688;BME280;27371;42.686;23.362;2023-03-03T03:45:17;162950.16;;;2.88;90.97
41688;BME280;27371;42.686;23.362;2023-03-03T03:47:43;162887.66;;;2.64;90.72
41688;BME280;27371;42.686;23.362;2023-03-03T03:50:09;162907.59;;;2.72;91.64
41688;BME280;27371;42.686;23.362;2023-03-03T03:52:35;162907.59;;;2.72;92.61
41688;BME280;27371;42.686;23.362;2023-03-03T03:55:01;162934.22;;;2.82;92.98
41688;BME280;27371;42.686;23.362;2023-03-03T03:57:26;162926.22;;;2.79;93.30
41688;BME280;27371;42.686;23.362;2023-03-03T03:59:52;162926.22;;;2.79;93.81
41688;BME280;27371;42.686;23.362;2023-03-03T04:02:18;162922.22;;;2.78;94.07
41688;BME280;27371;42.686;23.362;2023-03-03T04:04:43;162935.53;;;2.83;94.68
41688;BME280;27371;42.686;23.362;2023-03-03T04:07:09;162939.53;;;2.84;94.78
41688;BME280;27371;42.686;23.362;2023-03-03T04:09:34;162943.50;;;2.86;95.32
41688;BME280;27371;42.686;23.362;2023-03-03T04:12:00;162960.81;;;2.93;95.78
41688;BME280;27371;42.686;23.362;2023-03-03T04:14:25;162970.09;;;2.96;95.42
41688;BME280;27371;42.686;23.362;2023-03-03T04:16:50;162967.47;;;2.95;96.15
41688;BME280;27371;42.686;23.362;2023-03-03T04:19:16;162972.75;;;2.97;96.20
41688;BME280;27371;42.686;23.362;2023-03-03T04:21:41;162980.72;;;3.00;96.28
41688;BME280;27371;42.686;23.362;2023-03-03T04:24:07;162996.72;;;3.06;96.46
41688;BME280;27371;42.686;23.362;2023-03-03T04:26:32;162995.34;;;3.06;96.44
41688;BME280;27371;42.686;23.362;2023-03-03T04:28:58;162995.34;;;3.06;96.20
41688;BME280;27371;42.686;23.362;2023-03-03T04:31:24;162988.75;;;3.03;96.61
41688;BME280;27371;42.686;23.362;2023-03-03T04:33:50;163000.69;;;3.08;96.69
41688;BME280;27371;42.686;23.362;2023-03-03T04:36:16;162990.06;;;3.04;96.46
41688;BME280;27371;42.686;23.362;2023-03-03T04:38:42;162994.03;;;3.05;96.44
41688;BME280;27371;42.686;23.362;2023-03-03T04:41:07;162988.75;;;3.03;96.15
41688;BME280;27371;42.686;23.362;2023-03-03T04:43:33;162930.19;;;2.81;94.45
41688;BME280;27371;42.686;23.362;2023-03-03T04:45:59;162869.06;;;2.57;94.30
41688;BME280;27371;42.686;23.362;2023-03-03T04:48:25;162851.75;;;2.51;94.99
41688;BME280;27371;42.686;23.362;2023-03-03T04:50:50;162849.09;;;2.50;96.12
41688;BME280;27371;42.686;23.362;2023-03-03T04:53:16;162885.00;;;2.63;97.03
41688;BME280;27371;42.686;23.362;2023-03-03T04:55:42;162873.03;;;2.59;97.47
41688;BME280;27371;42.686;23.362;2023-03-03T04:58:07;162911.59;;;2.74;97.49
41688;BME280;27371;42.686;23.362;2023-03-03T05:00:34;162915.56;;;2.75;97.42
41688;BME280;27371;42.686;23.362;2023-03-03T05:03:00;162930.19;;;2.81;97.86
41688;BME280;27371;42.686;23.362;2023-03-03T05:05:25;162930.19;;;2.81;98.33
41688;BME280;27371;42.686;23.362;2023-03-03T05:07:51;162940.84;;;2.85;98.32
41688;BME280;27371;42.686;23.362;2023-03-03T05:10:16;162914.25;;;2.75;98.65
41688;BME280;27371;42.686;23.362;2023-03-03T05:12:42;162962.13;;;2.93;98.63
41688;BME280;27371;42.686;23.362;2023-03-03T05:15:09;162967.47;;;2.95;98.46
41688;BME280;27371;42.686;23.362;2023-03-03T05:17:34;162959.44;;;2.92;98.66
41688;BME280;27371;42.686;23.362;2023-03-03T05:20:00;162975.44;;;2.98;98.84
41688;BME280;27371;42.686;23.362;2023-03-03T05:22:25;162984.72;;;3.02;99.00
41688;BME280;27371;42.686;23.362;2023-03-03T05:24:51;162988.75;;;3.03;98.91
41688;BME280;27371;42.686;23.362;2023-03-03T05:27:18;162998.03;;;3.07;98.95
41688;BME280;27371;42.686;23.362;2023-03-03T05:29:44;162998.03;;;3.07;99.00
41688;BME280;27371;42.686;23.362;2023-03-03T05:32:09;163012.66;;;3.12;98.91
41688;BME280;27371;42.686;23.362;2023-03-03T05:34:35;163006.00;;;3.10;98.90
41688;BME280;27371;42.686;23.362;2023-03-03T05:37:00;163012.66;;;3.12;98.88
41688;BME280;27371;42.686;23.362;2023-03-03T05:39:28;163025.97;;;3.18;99.00
41688;BME280;27371;42.686;23.362;2023-03-03T05:41:53;163051.22;;;3.27;98.77
41688;BME280;27371;42.686;23.362;2023-03-03T05:44:20;163044.56;;;3.25;98.50
41688;BME280;27371;42.686;23.362;2023-03-03T05:46:45;163055.22;;;3.29;98.53
41688;BME280;27371;42.686;23.362;2023-03-03T05:49:11;163056.53;;;3.29;98.44
41688;BME280;27371;42.686;23.362;2023-03-03T05:51:36;163076.50;;;3.37;98.27
41688;BME280;27371;42.686;23.362;2023-03-03T05:54:02;163092.47;;;3.43;97.99
41688;BME280;27371;42.686;23.362;2023-03-03T05:56:27;163089.81;;;3.42;97.41
41688;BME280;27371;42.686;23.362;2023-03-03T05:58:53;163089.81;;;3.42;97.34
41688;BME280;27371;42.686;23.362;2023-03-03T06:01:18;163083.16;;;3.40;97.35
41688;BME280;27371;42.686;23.362;2023-03-03T06:03:44;163088.44;;;3.42;97.30
41688;BME280;27371;42.686;23.362;2023-03-03T06:06:10;163080.47;;;3.39;97.26
41688;BME280;27371;42.686;23.362;2023-03-03T06:08:36;163079.16;;;3.38;97.22
41688;BME280;27371;42.686;23.362;2023-03-03T06:11:02;163076.50;;;3.37;97.12
41688;BME280;27371;42.686;23.362;2023-03-03T06:13:27;163089.81;;;3.42;96.86
41688;BME280;27371;42.686;23.362;2023-03-03T06:15:54;163097.78;;;3.45;96.61
41688;BME280;27371;42.686;23.362;2023-03-03T06:18:19;163087.13;;;3.41;97.07
41688;BME280;27371;42.686;23.362;2023-03-03T06:20:50;163109.72;;;3.50;97.20
41688;BME280;27371;42.686;23.362;2023-03-03T06:23:15;163107.09;;;3.49;97.29
41688;BME280;27371;42.686;23.362;2023-03-03T06:25:41;163131.03;;;3.58;97.29
41688;BME280;27371;42.686;23.362;2023-03-03T06:28:07;163156.31;;;3.68;97.53
41688;BME280;27371;42.686;23.362;2023-03-03T06:30:32;163180.25;;;3.77;97.67
41688;BME280;27371;42.686;23.362;2023-03-03T06:32:58;163135.03;;;3.60;96.27
41688;BME280;27371;42.686;23.362;2023-03-03T06:35:23;163111.09;;;3.50;95.24
41688;BME280;27371;42.686;23.362;2023-03-03T06:37:48;163107.09;;;3.49;95.69
41688;BME280;27371;42.686;23.362;2023-03-03T06:40:15;163092.47;;;3.43;95.11
41688;BME280;27371;42.686;23.362;2023-03-03T06:42:40;163065.84;;;3.33;94.51
41688;BME280;27371;42.686;23.362;2023-03-03T06:45:06;163049.91;;;3.27;95.18
41688;BME280;27371;42.686;23.362;2023-03-03T06:47:32;163056.53;;;3.29;96.54
41688;BME280;27371;42.686;23.362;2023-03-03T06:49:58;163100.44;;;3.46;96.90
41688;BME280;27371;42.686;23.362;2023-03-03T06:52:25;163084.50;;;3.40;95.53
41688;BME280;27371;42.686;23.362;2023-03-03T06:54:57;163077.84;;;3.38;95.76
41688;BME280;27371;42.686;23.362;2023-03-03T06:57:26;163101.75;;;3.47;96.15
41688;BME280;27371;42.686;23.362;2023-03-03T06:59:54;163140.38;;;3.62;96.70
41688;BME280;27371;42.686;23.362;2023-03-03T07:02:21;163166.94;;;3.72;97.38
41688;BME280;27371;42.686;23.362;2023-03-03T07:04:47;163158.97;;;3.69;96.27
41688;BME280;27371;42.686;23.362;2023-03-03T07:09:44;163210.91;;;3.89;96.90
41688;BME280;27371;42.686;23.362;2023-03-03T07:12:12;163232.13;;;3.97;96.43
41688;BME280;27371;42.686;23.362;2023-03-03T07:14:47;163269.44;;;4.11;96.71
41688;BME280;27371;42.686;23.362;2023-03-03T07:17:18;163312.03;;;4.28;96.57
41688;BME280;27371;42.686;23.362;2023-03-03T07:19:45;163298.72;;;4.22;95.14
41688;BME280;27371;42.686;23.362;2023-03-03T07:22:19;163326.66;;;4.33;94.88
41688;BME280;27371;42.686;23.362;2023-03-03T07:24:50;163323.97;;;4.32;94.00
41688;BME280;27371;42.686;23.362;2023-03-03T07:27:23;163340.00;;;4.38;93.55
41688;BME280;27371;42.686;23.362;2023-03-03T07:29:51;163304.06;;;4.24;92.72
41688;BME280;27371;42.686;23.362;2023-03-03T07:32:31;163317.31;;;4.30;92.53
41688;BME280;27371;42.686;23.362;2023-03-03T07:35:20;163326.66;;;4.33;92.13
41688;BME280;27371;42.686;23.362;2023-03-03T07:37:49;163285.41;;;4.17;91.90
41688;BME280;27371;42.686;23.362;2023-03-03T07:40:28;163305.38;;;4.25;91.75
41688;BME280;27371;42.686;23.362;2023-03-03T07:42:55;163292.06;;;4.20;92.18
41688;BME280;27371;42.686;23.362;2023-03-03T07:45:28;163301.34;;;4.23;92.45
41688;BME280;27371;42.686;23.362;2023-03-03T07:48:35;163205.56;;;3.87;88.61
41688;BME280;27371;42.686;23.362;2023-03-03T07:51:05;163061.88;;;3.31;87.81
41688;BME280;27371;42.686;23.362;2023-03-03T07:53:36;162976.75;;;2.99;87.92
41688;BME280;27371;42.686;23.362;2023-03-03T07:56:11;162950.16;;;2.88;89.22
41688;BME280;27371;42.686;23.362;2023-03-03T07:58:40;162979.41;;;3.00;91.20
41688;BME280;27371;42.686;23.362;2023-03-03T08:01:29;163009.97;;;3.11;92.52
41688;BME280;27371;42.686;23.362;2023-03-03T08:03:56;163052.53;;;3.28;93.68
41688;BME280;27371;42.686;23.362;2023-03-03T08:11:36;163148.34;;;3.65;96.06
41688;BME280;27371;42.686;23.362;2023-03-03T08:14:09;163168.31;;;3.72;94.40
41688;BME280;27371;42.686;23.362;2023-03-03T08:16:37;163143.00;;;3.63;93.41
41688;BME280;27371;42.686;23.362;2023-03-03T08:19:04;163143.00;;;3.63;93.46
41688;BME280;27371;42.686;23.362;2023-03-03T08:21:30;163166.94;;;3.72;93.92
41688;BME280;27371;42.686;23.362;2023-03-03T08:23:57;163189.59;;;3.81;94.62
41688;BME280;27371;42.686;23.362;2023-03-03T08:26:24;163222.84;;;3.93;95.05
41688;BME280;27371;42.686;23.362;2023-03-03T08:28:50;163250.78;;;4.04;95.16
41688;BME280;27371;42.686;23.362;2023-03-03T08:31:16;163281.38;;;4.16;94.88
41688;BME280;27371;42.686;23.362;2023-03-03T08:33:42;163302.69;;;4.24;94.21
41688;BME280;27371;42.686;23.362;2023-03-03T08:36:07;163323.97;;;4.32;93.35
41688;BME280;27371;42.686;23.362;2023-03-03T08:38:33;163276.09;;;4.14;91.02
41688;BME280;27371;42.686;23.362;2023-03-03T08:40:59;163246.81;;;4.03;90.98
41688;BME280;27371;42.686;23.362;2023-03-03T08:43:25;163246.81;;;4.03;91.67
41688;BME280;27371;42.686;23.362;2023-03-03T08:45:53;163260.09;;;4.08;92.37
41688;BME280;27371;42.686;23.362;2023-03-03T08:48:19;163230.81;;;3.96;92.48
41688;BME280;27371;42.686;23.362;2023-03-03T08:50:45;163244.13;;;4.01;92.64
41688;BME280;27371;42.686;23.362;2023-03-03T08:53:12;163261.47;;;4.08;92.90
41688;BME280;27371;42.686;23.362;2023-03-03T08:55:38;163266.75;;;4.10;93.19
41688;BME280;27371;42.686;23.362;2023-03-03T08:58:03;163317.31;;;4.30;93.56
41688;BME280;27371;42.686;23.362;2023-03-03T09:00:29;163338.63;;;4.38;93.30
41688;BME280;27371;42.686;23.362;2023-03-03T09:02:55;163326.66;;;4.33;92.82
41688;BME280;27371;42.686;23.362;2023-03-03T09:05:21;163379.91;;;4.54;92.71
41688;BME280;27371;42.686;23.362;2023-03-03T09:07:47;163391.91;;;4.58;91.59
41688;BME280;27371;42.686;23.362;2023-03-03T09:10:17;163398.56;;;4.61;91.67
41688;BME280;27371;42.686;23.362;2023-03-03T09:12:45;163422.50;;;4.70;91.36
41688;BME280;27371;42.686;23.362;2023-03-03T09:15:23;163423.81;;;4.71;90.65
41688;BME280;27371;42.686;23.362;2023-03-03T09:17:50;163435.81;;;4.75;90.38
41688;BME280;27371;42.686;23.362;2023-03-03T09:20:47;163413.19;;;4.66;88.00
41688;BME280;27371;42.686;23.362;2023-03-03T09:23:33;163367.91;;;4.49;87.32
41688;BME280;27371;42.686;23.362;2023-03-03T09:31:58;163438.47;;;4.76;89.30
41688;BME280;27371;42.686;23.362;2023-03-03T09:34:39;163475.75;;;4.90;89.41
41688;BME280;27371;42.686;23.362;2023-03-03T09:37:27;163518.34;;;5.07;89.30
41688;BME280;27371;42.686;23.362;2023-03-03T09:39:55;163502.38;;;5.01;88.66
41688;BME280;27371;42.686;23.362;2023-03-03T09:42:37;163574.28;;;5.28;89.07
41688;BME280;27371;42.686;23.362;2023-03-03T09:45:18;163620.94;;;5.46;88.38
41688;BME280;27371;42.686;23.362;2023-03-03T09:48:15;163606.28;;;5.41;87.01
41688;BME280;27371;42.686;23.362;2023-03-03T09:55:58;163670.25;;;5.65;85.66
41688;BME280;27371;42.686;23.362;2023-03-03T09:58:49;163666.22;;;5.64;85.97
41688;BME280;27371;42.686;23.362;2023-03-03T10:12:30;163635.59;;;5.52;81.63
41688;BME280;27371;42.686;23.362;2023-03-03T10:18:00;163731.50;;;5.89;84.27
41688;BME280;27371;42.686;23.362;2023-03-03T10:26:41;163791.50;;;6.12;82.59
41688;BME280;27371;42.686;23.362;2023-03-03T10:40:24;164110.13;;;7.34;91.76
41688;BME280;27371;42.686;23.362;2023-03-03T10:54:33;164215.47;;;7.74;73.79
41688;BME280;27371;42.686;23.362;2023-03-03T10:57:25;164127.44;;;7.41;76.95
41688;BME280;27371;42.686;23.362;2023-03-03T11:02:37;164043.44;;;7.08;79.14
41688;BME280;27371;42.686;23.362;2023-03-03T11:07:51;164019.44;;;6.99;79.29
41688;BME280;27371;42.686;23.362;2023-03-03T11:10:29;164018.13;;;6.99;79.16
41688;BME280;27371;42.686;23.362;2023-03-03T11:18:27;163995.47;;;6.90;79.45
41688;BME280;27371;42.686;23.362;2023-03-03T11:21:18;163919.44;;;6.61;79.72
41688;BME280;27371;42.686;23.362;2023-03-03T11:29:22;163960.78;;;6.77;81.63
41688;BME280;27371;42.686;23.362;2023-03-03T11:31:55;163874.16;;;6.43;79.11
41688;BME280;27371;42.686;23.362;2023-03-03T11:39:46;163784.81;;;6.09;82.79
41688;BME280;27371;42.686;23.362;2023-03-03T11:42:23;163806.16;;;6.17;83.46
41688;BME280;27371;42.686;23.362;2023-03-03T11:45:02;163778.22;;;6.07;84.09
41688;BME280;27371;42.686;23.362;2023-03-03T11:47:33;163810.16;;;6.19;84.58
41688;BME280;27371;42.686;23.362;2023-03-03T11:50:38;163792.88;;;6.12;84.47
41688;BME280;27371;42.686;23.362;2023-03-03T11:56:40;163819.47;;;6.22;84.16
41688;BME280;27371;42.686;23.362;2023-03-03T12:01:53;163854.13;;;6.36;84.58
41688;BME280;27371;42.686;23.362;2023-03-03T12:07:31;163890.13;;;6.50;84.52
41688;BME280;27371;42.686;23.362;2023-03-03T12:10:10;163899.44;;;6.53;84.06
41688;BME280;27371;42.686;23.362;2023-03-03T12:12:54;163900.81;;;6.54;83.73
41688;BME280;27371;42.686;23.362;2023-03-03T12:15:46;163872.81;;;6.43;83.84
41688;BME280;27371;42.686;23.362;2023-03-03T12:26:32;163816.84;;;6.21;85.58
41688;BME280;27371;42.686;23.362;2023-03-03T12:29:20;163814.19;;;6.20;85.87
41688;BME280;27371;42.686;23.362;2023-03-03T12:32:03;163838.16;;;6.30;85.92
41688;BME280;27371;42.686;23.362;2023-03-03T12:34:44;163843.50;;;6.32;86.03
41688;BME280;27371;42.686;23.362;2023-03-03T12:45:10;163844.81;;;6.32;85.60
41688;BME280;27371;42.686;23.362;2023-03-03T12:53:33;163872.81;;;6.43;86.96
41688;BME280;27371;42.686;23.362;2023-03-03T12:56:34;163895.47;;;6.52;87.01
41688;BME280;27371;42.686;23.362;2023-03-03T12:59:07;163898.13;;;6.53;86.95
41688;BME280;27371;42.686;23.362;2023-03-03T13:12:50;163707.53;;;5.79;88.56
41688;BME280;27371;42.686;23.362;2023-03-03T13:18:14;163687.53;;;5.72;89.59
41688;BME280;27371;42.686;23.362;2023-03-03T13:20:52;163660.88;;;5.62;90.23
41688;BME280;27371;42.686;23.362;2023-03-03T13:26:15;163688.84;;;5.72;92.09
41688;BME280;27371;42.686;23.362;2023-03-03T13:31:40;163747.53;;;5.95;92.38
41688;BME280;27371;42.686;23.362;2023-03-03T13:37:14;163794.19;;;6.13;91.48
41688;BME280;27371;42.686;23.362;2023-03-03T13:39:55;163843.50;;;6.32;90.88
41688;BME280;27371;42.686;23.362;2023-03-03T13:42:41;163888.81;;;6.49;90.68
41688;BME280;27371;42.686;23.362;2023-03-03T13:45:18;163932.78;;;6.66;90.69
41688;BME280;27371;42.686;23.362;2023-03-03T13:50:47;163971.44;;;6.81;87.47
41688;BME280;27371;42.686;23.362;2023-03-03T14:04:05;164003.44;;;6.93;85.90
41688;BME280;27371;42.686;23.362;2023-03-03T14:06:33;164104.78;;;7.32;86.10
41688;BME280;27371;42.686;23.362;2023-03-03T14:12:03;164339.59;;;8.22;81.18
41688;BME280;27371;42.686;23.362;2023-03-03T14:14:43;164198.16;;;7.68;80.50
41688;BME280;27371;42.686;23.362;2023-03-03T14:20:20;164123.47;;;7.39;82.11
41688;BME280;27371;42.686;23.362;2023-03-03T14:22:58;164067.47;;;7.18;82.60
41688;BME280;27371;42.686;23.362;2023-03-03T14:25:25;164038.13;;;7.06;83.13
41688;BME280;27371;42.686;23.362;2023-03-03T14:28:08;164000.81;;;6.92;83.16
41688;BME280;27371;42.686;23.362;2023-03-03T14:30:39;164015.47;;;6.98;83.92
41688;BME280;27371;42.686;23.362;2023-03-03T14:35:41;163919.44;;;6.61;82.50
41688;BME280;27371;42.686;23.362;2023-03-03T14:40:34;163807.53;;;6.18;85.72
41688;BME280;27371;42.686;23.362;2023-03-03T14:43:01;163796.84;;;6.14;87.13
41688;BME280;27371;42.686;23.362;2023-03-03T14:45:37;163792.88;;;6.12;87.98
41688;BME280;27371;42.686;23.362;2023-03-03T14:48:24;163792.88;;;6.12;87.95
41688;BME280;27371;42.686;23.362;2023-03-03T14:50:58;163782.19;;;6.08;88.45
41688;BME280;27371;42.686;23.362;2023-03-03T14:53:37;163778.22;;;6.07;89.07
41688;BME280;27371;42.686;23.362;2023-03-03T14:58:53;163827.47;;;6.25;89.91
41688;BME280;27371;42.686;23.362;2023-03-03T15:01:35;163848.78;;;6.34;89.48
41688;BME280;27371;42.686;23.362;2023-03-03T15:04:02;163868.81;;;6.41;89.36
41688;BME280;27371;42.686;23.362;2023-03-03T15:09:36;163879.50;;;6.45;88.05
41688;BME280;27371;42.686;23.362;2023-03-03T15:12:21;163888.81;;;6.49;87.74
41688;BME280;27371;42.686;23.362;2023-03-03T15:14:49;163896.78;;;6.52;87.15
41688;BME280;27371;42.686;23.362;2023-03-03T15:20:03;163822.19;;;6.23;85.13
41688;BME280;27371;42.686;23.362;2023-03-03T15:25:35;163723.50;;;5.86;87.03
41688;BME280;27371;42.686;23.362;2023-03-03T15:28:35;163719.47;;;5.84;88.47
41688;BME280;27371;42.686;23.362;2023-03-03T15:31:52;163723.50;;;5.86;89.71
41688;BME280;27371;42.686;23.362;2023-03-03T15:36:51;163696.84;;;5.75;89.66
41688;BME280;27371;42.686;23.362;2023-03-03T15:42:12;163730.16;;;5.88;90.59
41688;BME280;27371;42.686;23.362;2023-03-03T15:44:53;163770.16;;;6.03;90.68
41688;BME280;27371;42.686;23.362;2023-03-03T15:47:46;163798.16;;;6.14;90.50
41688;BME280;27371;42.686;23.362;2023-03-03T15:53:23;163827.47;;;6.25;89.44
41688;BME280;27371;42.686;23.362;2023-03-03T16:03:41;163854.13;;;6.36;87.80
41688;BME280;27371;42.686;23.362;2023-03-03T16:06:23;163771.53;;;6.04;85.76
41688;BME280;27371;42.686;23.362;2023-03-03T16:09:28;163692.88;;;5.74;87.06
41688;BME280;27371;42.686;23.362;2023-03-03T16:27:57;163791.50;;;6.12;90.69
41688;BME280;27371;42.686;23.362;2023-03-03T16:33:37;163804.81;;;6.17;90.06
41688;BME280;27371;42.686;23.362;2023-03-03T16:46:49;163850.16;;;6.34;88.91
41688;BME280;27371;42.686;23.362;2023-03-03T16:49:20;163859.47;;;6.38;89.02
41688;BME280;27371;42.686;23.362;2023-03-03T17:00:26;163858.16;;;6.37;88.45
41688;BME280;27371;42.686;23.362;2023-03-03T17:03:19;163864.81;;;6.40;88.08
41688;BME280;27371;42.686;23.362;2023-03-03T17:05:52;163860.81;;;6.38;87.91
41688;BME280;27371;42.686;23.362;2023-03-03T17:12:01;163868.81;;;6.41;87.61
41688;BME280;27371;42.686;23.362;2023-03-03T17:35:58;163756.88;;;5.98;87.74
41688;BME280;27371;42.686;23.362;2023-03-03T17:46:45;163696.84;;;5.75;87.47
41688;BME280;27371;42.686;23.362;2023-03-03T18:03:59;163775.50;;;6.06;90.42
41688;BME280;27371;42.686;23.362;2023-03-03T18:18:02;163848.78;;;6.34;90.02